Date,TemperatureHighF,TemperatureAvgF,TemperatureLowF,DewpointHighF,DewpointAvgF,DewpointLowF,HumidityHigh,HumidityAvg,HumidityLow,PressureMaxIn,PressureMinIn,WindSpeedMaxMPH,WindSpeedAvgMPH,GustSpeedMaxMPH,PrecipitationSumIn
2013-3-1,54.2,46.5,40.2,38.4,34.6,31.2,88,64,46,29.94,29.84,8,2,8,0.00
2013-3-2,53.2,43.5,35.0,37.0,34.5,31.6,90,72,45,29.92,29.83,10,3,10,0.00
2013-3-3,50.2,40.6,33.0,34.6,29.9,26.9,91,67,43,30.01,29.88,13,3,13,0.00
2013-3-4,56.6,42.5,29.2,37.7,28.3,21.3,91,61,27,30.17,30.00,12,2,12,0.00
2013-3-5,65.3,53.9,40.2,56.8,45.2,37.5,99,75,37,30.11,29.70,17,4,17,0.03
2013-3-6,57.5,48.4,41.1,55.4,33.4,25.9,93,58,36,30.06,29.69,18,6,18,0.00
2013-3-7,61.6,46.2,35.1,41.1,34.4,29.7,93,66,35,30.21,30.06,12,3,12,0.00
2013-3-8,62.2,47.4,37.5,37.3,30.8,24.0,96,57,25,30.26,30.13,15,5,15,0.00
2013-3-9,63.6,47.8,36.6,42.1,36.5,30.5,95,67,38,30.30,30.21,14,3,14,0.00
2013-3-10,65.3,51.3,38.8,47.9,41.5,31.4,99,73,34,30.26,30.19,15,4,15,0.00
2013-3-11,70.3,60.2,47.4,60.3,54.5,46.0,98,83,61,30.19,29.90,18,5,18,0.00
2013-3-12,69.5,63.5,52.1,63.9,59.1,47.5,96,86,64,29.93,29.78,18,4,18,0.06
2013-3-13,68.5,55.1,41.9,47.8,37.1,28.1,94,56,24,30.11,29.93,16,3,16,0.00
2013-3-14,56.9,46.8,37.3,33.0,25.7,19.2,81,46,26,30.29,30.08,17,4,17,0.00
2013-3-15,68.8,51.2,36.4,48.6,38.2,27.5,93,66,29,30.21,30.03,12,3,12,0.00
2013-3-16,79.0,63.3,53.4,53.2,48.7,43.1,81,61,33,30.03,29.86,18,5,18,0.00
2013-3-17,76.9,64.5,56.4,58.6,53.6,50.3,86,69,47,30.02,29.94,15,4,15,0.00
2013-3-18,64.5,61.4,57.3,62.5,57.8,53.7,97,88,74,30.06,29.84,14,3,14,0.28
2013-3-19,77.3,63.3,54.3,60.6,51.5,30.3,99,71,32,29.97,29.80,12,3,12,0.21
2013-3-20,63.1,54.8,42.1,39.4,32.0,20.9,88,44,23,30.08,29.81,16,5,16,0.00
2013-3-21,60.9,46.1,39.2,39.3,30.0,16.0,93,59,19,29.93,29.77,12,2,12,0.00
2013-3-22,53.6,45.9,37.9,42.1,30.2,18.9,80,55,42,30.07,29.92,13,4,13,0.00
2013-3-23,56.0,49.6,43.3,52.5,46.1,40.4,98,88,64,30.03,29.84,14,4,14,0.76
2013-3-24,66.8,55.1,47.3,66.7,54.1,46.2,100,97,93,29.85,29.43,21,6,21,3.10
2013-3-25,58.2,50.1,43.1,48.0,36.5,22.3,98,64,30,29.95,29.57,18,5,18,0.00
2013-3-26,53.2,44.2,34.4,31.7,29.0,26.3,75,56,40,30.16,29.94,14,4,14,0.00
2013-3-27,61.3,46.4,33.1,35.3,31.1,27.1,90,59,30,30.25,30.14,13,2,13,0.00
2013-3-28,63.6,48.7,37.7,36.6,30.7,25.1,93,55,26,30.28,30.16,14,3,14,0.00
2013-3-29,65.0,50.5,37.7,44.5,37.6,33.8,97,67,34,30.33,30.20,14,2,14,0.00
2013-3-30,74.3,57.0,47.4,52.3,48.2,44.6,96,76,36,30.23,30.10,12,2,12,0.00
2013-3-31,73.8,65.6,56.4,60.3,56.4,51.8,90,73,57,30.04,29.88,12,4,12,0.02